createdAt,value
2019-02-21T00:00:23.886Z,36.63
2019-02-21T00:02:45.190Z,39.33
2019-02-21T00:05:14.799Z,34.92
2019-02-21T00:07:44.332Z,37.45
2019-02-21T00:10:13.759Z,43.40
2019-02-21T00:12:43.570Z,42.60
2019-02-21T00:15:13.191Z,46.60
2019-02-21T00:17:42.865Z,38.35
2019-02-21T00:20:12.514Z,48.23
2019-02-21T00:22:42.042Z,46.55
2019-02-21T00:25:14.423Z,45.25
2019-02-21T00:27:43.847Z,43.00
2019-02-21T00:30:13.421Z,43.25
2019-02-21T00:32:43.270Z,37.55
2019-02-21T00:35:12.953Z,41.25
2019-02-21T00:37:42.583Z,37.17
2019-02-21T00:40:12.343Z,45.95
2019-02-21T00:42:42.193Z,40.85
2019-02-21T00:45:11.902Z,37.45
2019-02-21T00:47:41.733Z,40.38
2019-02-21T00:50:11.393Z,42.78
2019-02-21T00:52:41.256Z,39.42
2019-02-21T00:55:10.894Z,36.03
2019-02-21T00:57:40.650Z,40.40
2019-02-21T01:00:13.643Z,37.08
2019-02-21T01:02:46.328Z,34.05
2019-02-21T01:05:16.330Z,37.83
2019-02-21T01:07:46.173Z,33.38
2019-02-21T01:10:15.864Z,32.85
2019-02-21T01:12:45.474Z,34.10
2019-02-21T01:15:14.943Z,32.53
2019-02-21T01:17:44.617Z,42.17
2019-02-21T01:20:14.123Z,28.02
2019-02-21T01:22:43.665Z,31.23
2019-02-21T01:25:13.428Z,29.35
2019-02-21T01:27:43.130Z,28.95
2019-02-21T01:30:12.778Z,25.48
2019-02-21T01:32:42.285Z,28.30
2019-02-21T01:35:11.788Z,24.77
2019-02-21T01:37:41.288Z,26.62
2019-02-21T01:40:10.859Z,27.52
2019-02-21T01:42:40.388Z,25.88
2019-02-21T01:45:10.072Z,35.03
2019-02-21T01:47:39.544Z,27.45
2019-02-21T01:50:09.378Z,32.50
2019-02-21T01:52:38.825Z,34.10
2019-02-21T01:55:09.853Z,32.05
2019-02-21T01:57:39.422Z,31.75
2019-02-21T02:00:11.605Z,28.50
2019-02-21T02:02:41.251Z,32.33
2019-02-21T02:05:10.932Z,28.23
2019-02-21T02:07:40.649Z,25.92
2019-02-21T02:10:10.254Z,27.60
2019-02-21T02:12:39.829Z,23.77
2019-02-21T02:15:10.090Z,22.35
2019-02-21T02:17:39.496Z,27.17
2019-02-21T02:20:09.215Z,26.87
2019-02-21T02:22:38.629Z,24.60
2019-02-21T02:25:08.299Z,22.50
2019-02-21T02:27:37.918Z,28.07
2019-02-21T02:30:08.658Z,25.05
2019-02-21T02:32:38.466Z,20.90
2019-02-21T02:35:07.980Z,25.15
2019-02-21T02:37:37.441Z,24.90
2019-02-21T02:40:07.457Z,27.02
2019-02-21T02:42:37.023Z,19.02
2019-02-21T02:45:07.245Z,22.42
2019-02-21T02:47:36.691Z,27.42
2019-02-21T02:50:07.904Z,27.17
2019-02-21T02:52:37.495Z,23.67
2019-02-21T02:55:07.215Z,24.02
2019-02-21T02:57:36.795Z,22.95
2019-02-21T03:00:09.643Z,22.35
2019-02-21T03:02:39.208Z,25.12
2019-02-21T03:05:08.891Z,24.02
2019-02-21T03:07:39.014Z,25.68
2019-02-21T03:10:11.247Z,23.62
2019-02-21T03:12:40.657Z,19.67
2019-02-21T03:15:10.191Z,24.30
2019-02-21T03:17:40.110Z,23.60
2019-02-21T03:20:10.271Z,19.02
2019-02-21T03:22:39.836Z,23.45
2019-02-21T03:25:09.539Z,23.50
2019-02-21T03:27:39.529Z,25.82
2019-02-21T03:30:12.387Z,26.27
2019-02-21T03:32:41.743Z,22.00
2019-02-21T03:35:11.285Z,23.30
2019-02-21T03:37:41.185Z,21.95
2019-02-21T03:40:11.015Z,21.25
2019-02-21T03:42:40.541Z,30.27
2019-02-21T03:45:16.027Z,29.30
2019-02-21T03:47:45.582Z,32.38
2019-02-21T03:50:15.045Z,37.30
2019-02-21T03:52:44.503Z,36.08
2019-02-21T03:55:14.420Z,33.18
2019-02-21T03:57:43.980Z,35.00
2019-02-21T04:00:13.737Z,38.53
2019-02-21T04:02:43.361Z,30.08
2019-02-21T04:05:13.013Z,28.85
2019-02-21T04:07:42.452Z,31.87
2019-02-21T04:10:12.243Z,36.95
2019-02-21T04:12:41.809Z,24.65
2019-02-21T04:15:13.008Z,29.55
2019-02-21T04:17:42.589Z,29.75
2019-02-21T04:20:12.903Z,28.07
2019-02-21T04:22:42.615Z,29.65
2019-02-21T04:25:12.338Z,26.97
2019-02-21T04:27:41.846Z,28.87
2019-02-21T04:30:11.461Z,28.30
2019-02-21T04:32:40.940Z,31.20
2019-02-21T04:35:10.461Z,30.95
2019-02-21T04:37:39.990Z,32.65
2019-02-21T04:40:09.923Z,30.35
2019-02-21T04:42:39.363Z,36.60
2019-02-21T04:45:08.820Z,30.15
2019-02-21T04:47:38.275Z,27.75
2019-02-21T04:50:08.380Z,27.15
2019-02-21T04:52:37.868Z,30.15
2019-02-21T04:55:07.419Z,27.27
2019-02-21T04:57:37.018Z,29.23
2019-02-21T05:00:09.754Z,31.87
2019-02-21T05:02:39.199Z,26.05
2019-02-21T05:05:08.754Z,27.65
2019-02-21T05:07:38.407Z,24.70
2019-02-21T05:10:08.044Z,29.70
2019-02-21T05:12:38.034Z,28.00
2019-02-21T05:15:07.646Z,25.62
2019-02-21T05:17:37.367Z,25.32
2019-02-21T05:20:07.227Z,34.13
2019-02-21T05:22:37.132Z,34.50
2019-02-21T05:25:06.535Z,37.53
2019-02-21T05:27:36.943Z,34.08
2019-02-21T05:30:10.310Z,42.65
2019-02-21T05:32:41.486Z,35.70
2019-02-21T05:35:15.236Z,32.10
2019-02-21T05:37:46.431Z,26.37
2019-02-21T05:40:35.816Z,31.82
2019-02-21T05:43:22.451Z,28.30
2019-02-21T05:45:59.791Z,25.40
2019-02-21T05:48:30.888Z,26.90
2019-02-21T05:51:02.141Z,27.30
2019-02-21T05:53:33.353Z,29.70
2019-02-21T05:56:04.446Z,26.60
2019-02-21T05:58:35.641Z,25.50
2019-02-21T06:01:06.981Z,25.17
2019-02-21T06:03:44.078Z,31.52
2019-02-21T06:06:33.780Z,22.50
2019-02-21T06:09:07.746Z,21.93
2019-02-21T06:11:41.465Z,26.07
2019-02-21T06:14:30.620Z,27.00
2019-02-21T06:17:04.433Z,25.90
2019-02-21T06:19:35.514Z,27.80
2019-02-21T06:22:15.690Z,29.70
2019-02-21T06:24:49.465Z,23.85
2019-02-21T06:27:20.684Z,28.00
2019-02-21T06:30:07.193Z,26.82
2019-02-21T06:32:36.666Z,23.27
2019-02-21T06:35:08.374Z,25.62
2019-02-21T06:37:38.028Z,27.77
2019-02-21T06:40:07.889Z,29.63
2019-02-21T06:42:37.551Z,24.72
2019-02-21T06:45:07.062Z,28.60
2019-02-21T06:47:36.523Z,23.20
2019-02-21T06:50:06.427Z,21.95
2019-02-21T06:52:35.895Z,28.05
2019-02-21T06:55:05.710Z,19.10
2019-02-21T06:57:35.627Z,25.50
2019-02-21T07:00:06.072Z,28.05
2019-02-21T07:02:35.798Z,25.17
2019-02-21T07:05:06.501Z,24.60
2019-02-21T07:07:36.143Z,24.00
2019-02-21T07:10:07.206Z,22.42
2019-02-21T07:12:36.831Z,23.35
2019-02-21T07:15:09.111Z,31.55
2019-02-21T07:17:48.493Z,19.55
2019-02-21T07:20:09.907Z,27.32
2019-02-21T07:22:39.501Z,26.17
2019-02-21T07:25:14.141Z,26.12
2019-02-21T07:27:43.748Z,25.88
2019-02-21T07:30:20.235Z,29.80
2019-02-21T07:32:44.694Z,27.45
2019-02-21T07:35:14.191Z,29.35
2019-02-21T07:37:43.789Z,27.00
2019-02-21T07:40:20.158Z,22.85
2019-02-21T07:42:45.162Z,24.60
2019-02-21T07:45:14.888Z,28.80
2019-02-21T07:47:44.513Z,27.52
2019-02-21T07:50:14.218Z,20.65
2019-02-21T07:52:43.811Z,23.57
2019-02-21T07:55:13.354Z,22.58
2019-02-21T07:57:42.862Z,28.42
2019-02-21T08:00:13.423Z,28.27
2019-02-21T08:02:42.899Z,28.25
2019-02-21T08:05:12.502Z,26.25
2019-02-21T08:07:42.268Z,23.60
2019-02-21T08:10:12.424Z,26.82
2019-02-21T08:12:41.973Z,24.52
2019-02-21T08:15:12.956Z,22.60
2019-02-21T08:17:42.415Z,27.15
2019-02-21T08:20:12.709Z,23.07
2019-02-21T08:22:42.218Z,23.32
2019-02-21T08:25:11.591Z,29.57
2019-02-21T08:27:42.575Z,24.87
2019-02-21T08:30:14.378Z,27.07
2019-02-21T08:33:00.410Z,33.83
2019-02-21T08:35:30.794Z,37.03
2019-02-21T08:38:00.353Z,27.50
2019-02-21T08:40:29.887Z,28.40
2019-02-21T08:42:59.746Z,22.62
2019-02-21T08:45:29.233Z,29.90
2019-02-21T08:47:58.856Z,30.20
2019-02-21T08:50:28.289Z,27.95
2019-02-21T08:52:57.783Z,25.08
2019-02-21T08:55:27.267Z,34.10
2019-02-21T08:57:56.917Z,26.48
2019-02-21T09:00:26.419Z,27.58
2019-02-21T09:02:55.991Z,26.97
2019-02-21T09:05:25.480Z,29.10
2019-02-21T09:07:55.235Z,27.07
2019-02-21T09:10:27.447Z,28.32
2019-02-21T09:12:56.361Z,23.60
2019-02-21T09:15:25.772Z,30.55
2019-02-21T09:17:55.888Z,25.15
2019-02-21T09:20:25.296Z,23.32
2019-02-21T09:22:54.895Z,23.60
2019-02-21T09:25:24.338Z,24.65
2019-02-21T09:27:53.774Z,27.87
2019-02-21T09:30:23.281Z,23.32
2019-02-21T09:32:52.828Z,26.55
2019-02-21T09:35:22.532Z,24.82
2019-02-21T09:37:51.955Z,23.12
2019-02-21T09:40:21.894Z,25.82
2019-02-21T09:42:51.325Z,27.40
2019-02-21T09:45:21.166Z,25.88
2019-02-21T09:47:50.611Z,25.20
2019-02-21T09:50:20.221Z,19.85
2019-02-21T09:52:49.795Z,22.45
2019-02-21T09:55:19.417Z,22.87
2019-02-21T09:57:48.996Z,17.95
2019-02-21T10:00:22.495Z,25.95
2019-02-21T10:02:55.805Z,20.85
2019-02-21T10:05:23.571Z,26.57
2019-02-21T10:07:53.290Z,26.20
2019-02-21T10:10:23.252Z,21.17
2019-02-21T10:12:52.676Z,23.67
2019-02-21T10:15:22.425Z,26.68
2019-02-21T10:17:52.156Z,24.98
2019-02-21T10:20:24.424Z,21.10
2019-02-21T10:22:56.051Z,22.22
2019-02-21T10:25:27.811Z,22.62
2019-02-21T10:27:58.996Z,23.32
2019-02-21T10:30:28.400Z,25.30
2019-02-21T10:32:57.898Z,28.92
2019-02-21T10:35:27.582Z,26.90
2019-02-21T10:37:57.385Z,24.95
2019-02-21T10:40:29.217Z,24.50
2019-02-21T10:42:58.634Z,21.75
2019-02-21T10:45:28.165Z,23.02
2019-02-21T10:47:57.653Z,24.77
2019-02-21T10:50:27.194Z,25.77
2019-02-21T10:52:58.085Z,28.23
2019-02-21T10:55:27.532Z,27.55
2019-02-21T10:57:57.222Z,25.75
2019-02-21T11:00:30.687Z,24.18
2019-02-21T11:03:00.241Z,30.82
2019-02-21T11:05:30.201Z,34.85
2019-02-21T11:07:59.757Z,31.90
2019-02-21T11:10:30.575Z,38.02
2019-02-21T11:13:00.608Z,28.40
2019-02-21T11:15:30.303Z,23.67
2019-02-21T11:17:59.846Z,23.80
2019-02-21T11:20:29.609Z,25.75
2019-02-21T11:23:00.831Z,24.30
2019-02-21T11:25:30.891Z,27.15
2019-02-21T11:28:00.300Z,24.02
2019-02-21T11:30:29.772Z,26.52
2019-02-21T11:32:59.503Z,27.22
2019-02-21T11:35:29.030Z,29.70
2019-02-21T11:37:58.532Z,26.33
2019-02-21T11:40:27.974Z,25.20
2019-02-21T11:42:57.843Z,27.05
2019-02-21T11:45:27.305Z,26.37
2019-02-21T11:47:57.058Z,29.72
2019-02-21T11:50:26.500Z,26.12
2019-02-21T11:52:55.897Z,24.45
2019-02-21T11:55:27.202Z,29.80
2019-02-21T11:57:56.665Z,34.03
2019-02-21T12:00:30.624Z,31.60
2019-02-21T12:03:00.036Z,36.13
2019-02-21T12:05:31.532Z,32.70
2019-02-21T12:08:00.706Z,27.65
2019-02-21T12:10:30.118Z,32.40
2019-02-21T12:12:59.928Z,34.50
2019-02-21T12:15:29.394Z,30.48
2019-02-21T12:17:58.850Z,38.92
2019-02-21T12:20:28.443Z,30.80
2019-02-21T12:22:57.847Z,30.85
2019-02-21T12:25:27.317Z,29.20
2019-02-21T12:27:56.767Z,30.10
2019-02-21T12:30:26.397Z,29.87
2019-02-21T12:32:55.831Z,24.90
2019-02-21T12:35:29.668Z,25.27
2019-02-21T12:37:57.406Z,25.15
2019-02-21T12:40:26.866Z,25.77
2019-02-21T12:42:56.341Z,27.50
2019-02-21T12:45:29.848Z,30.00
2019-02-21T12:47:58.311Z,26.60
2019-02-21T12:50:27.719Z,27.10
2019-02-21T12:52:57.382Z,28.20
2019-02-21T12:55:31.485Z,23.22
2019-02-21T12:57:58.211Z,23.65
2019-02-21T13:00:27.871Z,24.25
2019-02-21T13:02:57.323Z,25.75
2019-02-21T13:05:26.848Z,26.15
2019-02-21T13:07:57.490Z,26.12
2019-02-21T13:10:27.061Z,24.72
2019-02-21T13:12:56.505Z,27.62
2019-02-21T13:15:25.937Z,28.95
2019-02-21T13:17:55.377Z,30.05
2019-02-21T13:20:24.948Z,23.77
2019-02-21T13:22:54.588Z,26.80
2019-02-21T13:25:24.047Z,27.32
2019-02-21T13:27:53.458Z,26.80
2019-02-21T13:30:22.898Z,27.17
2019-02-21T13:32:52.607Z,26.50
2019-02-21T13:35:22.036Z,31.60
2019-02-21T13:37:51.623Z,43.68
2019-02-21T13:40:21.532Z,28.42
2019-02-21T13:42:51.179Z,25.82
2019-02-21T13:45:20.596Z,29.07
2019-02-21T13:47:50.137Z,25.75
2019-02-21T13:50:20.703Z,28.57
2019-02-21T13:52:51.275Z,23.70
2019-02-21T13:55:20.831Z,33.48
2019-02-21T13:57:50.262Z,26.30
2019-02-21T14:00:21.456Z,23.25
2019-02-21T14:02:51.576Z,29.12
2019-02-21T14:05:21.113Z,24.40
2019-02-21T14:07:50.555Z,29.30
2019-02-21T14:10:20.121Z,29.02
2019-02-21T14:12:49.603Z,26.33
2019-02-21T14:15:27.929Z,18.35
2019-02-21T14:17:57.532Z,23.77
2019-02-21T14:20:26.920Z,25.52
2019-02-21T14:22:56.389Z,25.95
2019-02-21T14:25:28.183Z,26.55
2019-02-21T14:27:57.072Z,22.40
2019-02-21T14:30:26.547Z,22.70
2019-02-21T14:32:56.053Z,23.18
2019-02-21T14:35:25.797Z,24.80
2019-02-21T14:37:55.422Z,23.98
2019-02-21T14:40:24.959Z,21.73
2019-02-21T14:42:54.416Z,23.40
2019-02-21T14:45:25.417Z,22.93
2019-02-21T14:47:54.844Z,18.85
2019-02-21T14:50:24.411Z,21.48
2019-02-21T14:52:53.917Z,22.75
2019-02-21T14:55:23.504Z,20.02
2019-02-21T14:57:53.022Z,22.52
2019-02-21T15:00:23.820Z,15.13
2019-02-21T15:02:53.442Z,18.07
2019-02-21T15:05:22.901Z,21.57
2019-02-21T15:07:52.399Z,19.48
2019-02-21T15:10:22.050Z,23.87
2019-02-21T15:12:51.648Z,22.50
2019-02-21T15:15:22.845Z,23.32
2019-02-21T15:17:52.280Z,22.93
2019-02-21T15:20:22.017Z,16.80
2019-02-21T15:22:53.837Z,24.47
2019-02-21T15:25:23.080Z,20.95
2019-02-21T15:27:52.518Z,19.12
2019-02-21T15:30:23.788Z,20.02
2019-02-21T15:32:53.249Z,19.40
2019-02-21T15:35:23.063Z,19.80
2019-02-21T15:37:52.642Z,27.02
2019-02-21T15:40:22.115Z,23.15
2019-02-21T15:42:52.749Z,24.67
2019-02-21T15:45:28.673Z,24.15
2019-02-21T15:47:58.086Z,19.23
2019-02-21T15:50:27.542Z,26.45
2019-02-21T15:52:57.635Z,22.07
2019-02-21T15:55:27.190Z,23.73
2019-02-21T15:58:03.756Z,23.95
2019-02-21T16:00:27.941Z,24.55
2019-02-21T16:02:57.450Z,24.10
2019-02-21T16:05:27.158Z,24.12
2019-02-21T16:07:56.663Z,23.52
2019-02-21T16:10:27.714Z,25.57
2019-02-21T16:12:57.689Z,31.62
2019-02-21T16:15:27.623Z,30.92
2019-02-21T16:17:57.077Z,24.90
2019-02-21T16:20:26.727Z,28.87
2019-02-21T16:22:56.378Z,32.00
2019-02-21T16:25:31.602Z,31.55
2019-02-21T16:28:01.109Z,33.05
2019-02-21T16:30:30.837Z,35.88
2019-02-21T16:33:00.493Z,24.60
2019-02-21T16:35:30.022Z,25.55
2019-02-21T16:37:59.504Z,28.32
2019-02-21T16:40:29.195Z,31.60
2019-02-21T16:42:58.650Z,32.20
2019-02-21T16:45:42.148Z,30.90
2019-02-21T16:47:59.612Z,26.50
2019-02-21T16:50:30.249Z,30.77
2019-02-21T16:53:00.053Z,38.50
2019-02-21T16:55:29.506Z,41.08
2019-02-21T16:57:59.105Z,28.62
2019-02-21T17:00:38.888Z,25.92
2019-02-21T17:02:59.982Z,29.55
2019-02-21T17:05:29.448Z,28.40
2019-02-21T17:07:59.033Z,32.05
2019-02-21T17:10:28.748Z,36.68
2019-02-21T17:12:58.678Z,30.68
2019-02-21T17:15:28.398Z,30.05
2019-02-21T17:17:57.880Z,33.90
2019-02-21T17:20:27.644Z,33.73
2019-02-21T17:22:57.139Z,33.30
2019-02-21T17:25:26.612Z,33.85
2019-02-21T17:27:56.074Z,33.30
2019-02-21T17:30:25.717Z,32.05
2019-02-21T17:32:55.146Z,31.17
2019-02-21T17:35:24.758Z,33.45
2019-02-21T17:37:54.237Z,30.85
2019-02-21T17:40:24.946Z,33.13
2019-02-21T17:42:54.413Z,35.45
2019-02-21T17:45:24.103Z,34.78
2019-02-21T17:47:53.663Z,30.10
2019-02-21T17:50:23.182Z,30.95
2019-02-21T17:52:52.804Z,35.85
2019-02-21T17:55:22.375Z,33.73
2019-02-21T17:57:52.024Z,29.15
2019-02-21T18:00:27.133Z,39.38
2019-02-21T18:02:56.740Z,33.70
2019-02-21T18:05:26.478Z,35.88
2019-02-21T18:07:56.120Z,31.35
2019-02-21T18:10:25.583Z,29.85
2019-02-21T18:12:54.986Z,32.80
2019-02-21T18:15:24.627Z,29.35
2019-02-21T18:17:54.311Z,33.58
2019-02-21T18:20:23.841Z,26.45
2019-02-21T18:22:53.365Z,31.17
2019-02-21T18:25:41.200Z,30.60
2019-02-21T18:28:10.764Z,29.25
2019-02-21T18:30:42.165Z,45.60
2019-02-21T18:33:11.800Z,39.63
2019-02-21T18:35:41.381Z,38.90
2019-02-21T18:38:11.209Z,32.80
2019-02-21T18:40:40.776Z,30.10
2019-02-21T18:43:10.382Z,29.20
2019-02-21T18:45:40.096Z,31.85
2019-02-21T18:48:09.786Z,35.20
2019-02-21T18:50:39.495Z,35.33
2019-02-21T18:53:08.933Z,30.55
2019-02-21T18:55:38.605Z,33.78
2019-02-21T18:58:08.024Z,30.27
2019-02-21T19:00:37.645Z,21.57
2019-02-21T19:03:07.327Z,24.60
2019-02-21T19:05:36.766Z,19.98
2019-02-21T19:08:06.314Z,25.95
2019-02-21T19:10:35.888Z,24.20
2019-02-21T19:13:07.577Z,26.90
2019-02-21T19:15:37.121Z,19.17
2019-02-21T19:18:06.561Z,26.85
2019-02-21T19:20:36.100Z,34.13
2019-02-21T19:23:05.534Z,47.50
2019-02-21T19:25:35.277Z,32.33
2019-02-21T19:28:05.045Z,33.15
2019-02-21T19:30:38.056Z,22.27
2019-02-21T19:33:07.967Z,20.17
2019-02-21T19:35:37.405Z,17.92
2019-02-21T19:38:10.708Z,13.35
2019-02-21T19:40:40.538Z,14.13
2019-02-21T19:43:10.234Z,14.60
2019-02-21T19:45:39.701Z,8.53
2019-02-21T19:48:09.222Z,8.33
2019-02-21T19:50:39.117Z,12.05
2019-02-21T19:53:08.876Z,7.97
2019-02-21T19:55:39.091Z,8.15
2019-02-21T19:58:08.548Z,5.90
2019-02-21T20:00:38.049Z,5.37
2019-02-21T20:03:07.622Z,6.50
2019-02-21T20:05:37.061Z,7.12
2019-02-21T20:08:08.915Z,9.13
2019-02-21T20:10:39.016Z,10.50
2019-02-21T20:13:10.033Z,9.68
2019-02-21T20:15:39.676Z,8.35
2019-02-21T20:18:09.178Z,9.63
2019-02-21T20:20:38.800Z,8.53
2019-02-21T20:23:08.321Z,10.72
2019-02-21T20:25:37.942Z,9.75
2019-02-21T20:28:07.738Z,9.55
2019-02-21T20:30:37.413Z,10.05
2019-02-21T20:33:07.164Z,9.25
2019-02-21T20:35:37.036Z,9.95
2019-02-21T20:38:06.734Z,11.28
2019-02-21T20:40:36.595Z,10.93
2019-02-21T20:43:06.100Z,12.45
2019-02-21T20:45:35.897Z,10.80
2019-02-21T20:48:05.784Z,13.58
2019-02-21T20:50:36.066Z,9.73
2019-02-21T20:53:05.522Z,9.80
2019-02-21T20:55:43.455Z,10.93
2019-02-21T20:58:06.713Z,11.03
2019-02-21T21:00:36.463Z,11.85
2019-02-21T21:03:06.102Z,10.25
2019-02-21T21:05:37.221Z,10.58
2019-02-21T21:08:06.699Z,8.70
2019-02-21T21:10:36.418Z,9.18
2019-02-21T21:13:06.172Z,11.20
2019-02-21T21:15:35.667Z,8.55
2019-02-21T21:18:05.123Z,10.28
2019-02-21T21:20:34.927Z,9.30
2019-02-21T21:23:04.435Z,9.25
2019-02-21T21:25:34.090Z,10.05
2019-02-21T21:28:03.659Z,9.55
2019-02-21T21:30:33.111Z,10.32
2019-02-21T21:33:02.653Z,10.35
2019-02-21T21:35:32.249Z,8.40
2019-02-21T21:38:02.285Z,10.00
2019-02-21T21:40:35.270Z,7.35
2019-02-21T21:43:04.943Z,9.33
2019-02-21T21:45:34.484Z,7.65
2019-02-21T21:48:04.032Z,9.40
2019-02-21T21:50:33.517Z,7.47
2019-02-21T21:53:03.285Z,8.83
2019-02-21T21:55:34.053Z,8.88
2019-02-21T21:58:03.509Z,9.25
2019-02-21T22:00:33.058Z,11.10
2019-02-21T22:03:03.073Z,9.73
2019-02-21T22:05:32.564Z,10.43
2019-02-21T22:08:02.059Z,9.65
2019-02-21T22:10:31.697Z,11.88
2019-02-21T22:13:01.428Z,9.28
2019-02-21T22:15:31.017Z,7.33
2019-02-21T22:18:00.883Z,8.55
2019-02-21T22:20:30.654Z,8.08
2019-02-21T22:23:02.075Z,7.60
2019-02-21T22:25:32.068Z,7.20
2019-02-21T22:28:01.863Z,9.30
2019-02-21T22:30:31.538Z,11.83
2019-02-21T22:33:01.499Z,8.30
2019-02-21T22:35:31.499Z,10.13
2019-02-21T22:38:01.262Z,9.48
2019-02-21T22:40:30.931Z,11.30
2019-02-21T22:43:00.911Z,8.18
2019-02-21T22:45:30.534Z,8.78
2019-02-21T22:48:00.183Z,8.73
2019-02-21T22:50:29.800Z,8.03
2019-02-21T22:52:59.613Z,8.90
2019-02-21T22:55:29.353Z,9.58
2019-02-21T22:57:59.380Z,10.85
2019-02-21T23:00:36.681Z,8.93
2019-02-21T23:03:09.026Z,6.87
2019-02-21T23:06:10.616Z,9.35
2019-02-21T23:08:43.859Z,8.15
2019-02-21T23:11:13.769Z,9.98
2019-02-21T23:13:43.506Z,7.47
2019-02-21T23:16:13.352Z,5.95
2019-02-21T23:18:43.150Z,6.15
2019-02-21T23:21:12.944Z,5.17
2019-02-21T23:23:42.768Z,4.70
2019-02-21T23:26:12.579Z,5.53
2019-02-21T23:28:42.592Z,7.37
2019-02-21T23:31:12.316Z,5.58
2019-02-21T23:33:46.529Z,4.58
2019-02-21T23:36:16.350Z,5.22
2019-02-21T23:38:46.766Z,6.67
2019-02-21T23:41:16.786Z,5.53
2019-02-21T23:43:47.265Z,6.30
2019-02-21T23:46:17.191Z,7.72
2019-02-21T23:48:47.152Z,4.60
2019-02-21T23:51:16.797Z,4.92
2019-02-21T23:53:46.492Z,6.05
2019-02-21T23:56:16.264Z,7.08
2019-02-21T23:58:45.873Z,6.37
